Beckley, WV

9:42 AM EDT on October 25, 2014 (GMT -0400)
Mercer County | Change Station
CLOSE
Current Station
Airport
Location: Bluefield,
Elevation: 2858 ft
Nearby Weather Stations

Elev 2858 ft 37.30 °N, 81.21 °W | Updated 50 minutes ago

Clear
Clear
43 °F
Feels Like 39 °F
N
7
Wind Variable Wind from WSW

Today
High -- | Low -- °F
--% Chance of Precip.
Yesterday
High -- | Low -- °F
Precip. -- in
7:43 AM 6:34 PM
Waxing Crescent, 3% visible
Pressure 30.08 in
Visibility 10.0 miles
Clouds Clear
Windchill 39 °F
Dew Point 37 °F
Humidity 80%
Rainfall 0.00 in
Snow Depth Not available.
UV 1 out of 12
Pollen 1.20 out of 12
Air Quality Not available.
Flu Activity Sporadic
METAR KBLF 251252Z AUTO 25006KT 10SM CLR 06/03 A3008 RMK AO2 SLP184 T00610028

More Conditions Fewer Conditions

Pressure 30.08 in
Visibility 10.0 miles
Clouds Clear
Windchill 39 °F
Dew Point 37 °F
Humidity 80%
Rainfall 0.00 in
Snow Depth Not available.
UV 1 out of 12
Pollen 1.20 out of 12
Air Quality Not available.
Flu Activity Sporadic
METAR KBLF 251252Z AUTO 25006KT 10SM CLR 06/03 A3008 RMK AO2 SLP184 T00610028

More Conditions Fewer Conditions

10-Day Weather Forecast

Almanac

Astronomy

Oct. 25, 2014 Rise Set
Actual Time 7:43 AM EDT 6:34 PM EDT
Civil Twilight 7:16 AM EDT 7:01 PM EDT
Nautical Twilight 6:45 AM EDT 7:31 PM EDT
Astronomical Twilight 6:15 AM EDT 8:02 PM EDT
Moon 9:19 AM EDT 7:57 PM EDT
Length of Visible Light 11h 44m
Length of Day
10h 51m
Tomorrow will be 2m 13s shorter.
Waxing Crescent, 3% of the Moon is Illuminated
Today
Waxing Crescent
Oct 30
First Quarter
Nov 6
Full
Nov 14
Last Quarter
Nov 22
New

Today's Extremes

State Highs State Lows

Community

WunderPhotos

Upload Photos

1,764,830 photos uploaded!

Nearby

Snow Depth

Station Depth Elevation
No new snow has been reported.

Earthquake Activity

City Distance Mag. Time & Date
No recent earthquake activity has been reported nearby.
Minimum magnitude displayed is 2.5.

Coastal Water Temperatures

Place Temperature
No Stations Reporting

Nearby Weather Stations